createdAt,value
2022-08-22T00:00:58.868Z,4.97
2022-08-22T00:03:02.938Z,4.50
2022-08-22T00:06:15.256Z,5.07
2022-08-22T00:11:29.442Z,4.78
2022-08-22T00:16:38.398Z,4.45
2022-08-22T00:21:48.737Z,4.60
2022-08-22T00:26:57.140Z,4.47
2022-08-22T00:32:10.315Z,4.80
2022-08-22T00:37:24.522Z,4.80
2022-08-22T00:42:53.950Z,4.73
2022-08-22T00:48:07.582Z,5.28
2022-08-22T00:53:32.693Z,5.88
2022-08-22T00:59:22.828Z,5.07
2022-08-22T01:04:50.933Z,5.20
2022-08-22T01:10:05.126Z,5.15
2022-08-22T01:15:11.094Z,5.13
2022-08-22T01:20:53.589Z,5.05
2022-08-22T01:26:31.487Z,5.00
2022-08-22T01:32:19.392Z,4.90
2022-08-22T01:37:59.886Z,5.07
2022-08-22T01:43:18.017Z,4.70
2022-08-22T01:48:26.016Z,6.35
2022-08-22T01:53:43.688Z,5.87
2022-08-22T01:58:58.807Z,6.30
2022-08-22T02:04:10.872Z,5.80
2022-08-22T02:09:28.916Z,5.83
2022-08-22T02:14:44.639Z,5.68
2022-08-22T02:19:55.359Z,5.30
2022-08-22T02:25:09.012Z,5.87
2022-08-22T02:30:17.137Z,5.63
2022-08-22T02:35:26.514Z,5.32
2022-08-22T02:40:35.409Z,6.30
2022-08-22T02:45:47.919Z,5.17
2022-08-22T02:50:57.396Z,6.43
2022-08-22T02:56:04.961Z,5.68
2022-08-22T03:01:24.335Z,7.30
2022-08-22T03:06:39.897Z,6.40
2022-08-22T03:11:48.366Z,6.18
2022-08-22T03:17:02.765Z,6.40
2022-08-22T03:22:11.275Z,6.50
2022-08-22T03:27:32.735Z,5.95
2022-08-22T03:32:53.701Z,6.03
2022-08-22T03:38:14.606Z,5.70
2022-08-22T03:43:39.931Z,6.55
2022-08-22T03:49:13.883Z,6.43
2022-08-22T03:54:48.951Z,5.83
2022-08-22T04:00:22.466Z,5.90
2022-08-22T04:06:11.527Z,5.50
2022-08-22T04:11:51.821Z,6.00
2022-08-22T04:17:33.581Z,5.50
2022-08-22T04:23:12.949Z,7.53
2022-08-22T04:28:20.746Z,6.30
2022-08-22T04:33:30.410Z,6.50
2022-08-22T04:38:40.072Z,7.28
2022-08-22T04:43:49.042Z,7.07
2022-08-22T04:48:56.371Z,7.40
2022-08-22T04:54:39.722Z,6.75
2022-08-22T04:59:43.693Z,6.10
2022-08-22T05:04:51.498Z,6.10
2022-08-22T05:10:11.621Z,6.03
2022-08-22T05:15:23.170Z,7.40
2022-08-22T05:20:28.688Z,6.55
2022-08-22T05:25:37.163Z,7.60
2022-08-22T05:30:41.004Z,7.03
2022-08-22T05:35:50.782Z,8.07
2022-08-22T05:41:03.101Z,9.60
2022-08-22T05:46:09.825Z,8.98
2022-08-22T05:51:18.779Z,6.57
2022-08-22T05:56:33.698Z,7.80
2022-08-22T06:01:44.580Z,6.30
2022-08-22T06:06:55.027Z,6.70
2022-08-22T06:12:01.696Z,6.43
2022-08-22T06:17:11.250Z,6.07
2022-08-22T06:22:18.744Z,5.78
2022-08-22T06:27:25.597Z,4.97
2022-08-22T06:32:59.002Z,4.70
2022-08-22T06:38:00.571Z,5.05
2022-08-22T06:43:13.245Z,4.20
2022-08-22T06:48:19.416Z,4.50
2022-08-22T06:53:25.886Z,3.63
2022-08-22T06:58:34.471Z,3.40
2022-08-22T07:03:41.994Z,3.53
2022-08-22T07:08:45.452Z,4.17
2022-08-22T07:14:01.782Z,3.60
2022-08-22T07:19:04.618Z,3.63
2022-08-22T07:24:08.765Z,3.30
2022-08-22T07:29:23.180Z,3.17
2022-08-22T07:34:44.665Z,3.20
2022-08-22T07:39:54.010Z,2.70
2022-08-22T07:45:10.169Z,2.80
2022-08-22T07:50:21.867Z,3.00
2022-08-22T07:55:27.064Z,2.85
2022-08-22T08:00:32.471Z,2.70
2022-08-22T08:05:39.453Z,2.65
2022-08-22T08:10:42.405Z,2.60
2022-08-22T08:15:47.025Z,2.90
2022-08-22T08:20:52.805Z,2.75
2022-08-22T08:26:04.323Z,2.20
2022-08-22T08:31:20.471Z,2.30
2022-08-22T08:36:31.308Z,2.40
2022-08-22T08:42:31.537Z,2.67
2022-08-22T08:47:49.580Z,2.30
2022-08-22T08:53:27.023Z,2.50
2022-08-22T08:58:43.335Z,2.28
2022-08-22T09:04:21.384Z,2.70
2022-08-22T09:09:38.577Z,2.13
2022-08-22T09:15:19.743Z,2.40
2022-08-22T09:20:48.657Z,2.40
2022-08-22T09:25:56.648Z,2.57
2022-08-22T09:31:32.841Z,2.80
2022-08-22T09:37:06.485Z,2.60
2022-08-22T09:42:21.091Z,2.63
2022-08-22T09:47:32.730Z,2.50
2022-08-22T09:52:54.708Z,2.65
2022-08-22T09:58:05.879Z,2.20
2022-08-22T10:03:20.481Z,2.50
2022-08-22T10:08:50.755Z,2.40
2022-08-22T10:14:01.529Z,2.90
2022-08-22T10:19:18.734Z,2.80
2022-08-22T10:24:43.858Z,2.67
2022-08-22T10:30:04.977Z,2.97
2022-08-22T10:35:19.504Z,2.63
2022-08-22T10:40:29.937Z,2.40
2022-08-22T10:45:36.584Z,2.20
2022-08-22T10:50:44.472Z,2.25
2022-08-22T10:55:54.049Z,2.40
2022-08-22T11:01:02.540Z,2.28
2022-08-22T11:06:30.605Z,2.38
2022-08-22T11:11:43.543Z,2.30
2022-08-22T11:16:58.022Z,2.10
2022-08-22T11:22:06.892Z,1.75
2022-08-22T11:27:21.949Z,1.77
2022-08-22T11:32:49.676Z,2.00
2022-08-22T11:38:01.120Z,2.17
2022-08-22T11:43:32.568Z,2.10
2022-08-22T11:48:48.655Z,1.87
2022-08-22T11:54:01.985Z,1.70
2022-08-22T11:59:16.218Z,1.80
2022-08-22T12:04:28.409Z,1.63
2022-08-22T12:09:55.696Z,2.00
2022-08-22T12:15:09.147Z,1.90
2022-08-22T12:20:28.305Z,2.13
2022-08-22T12:26:01.057Z,1.80
2022-08-22T12:31:13.731Z,2.00
2022-08-22T12:36:45.912Z,2.08
2022-08-22T12:42:21.616Z,1.90
2022-08-22T12:47:42.107Z,2.13
2022-08-22T12:52:58.676Z,2.08
2022-08-22T12:58:12.637Z,2.50
2022-08-22T13:03:25.815Z,2.10
2022-08-22T13:08:32.481Z,2.47
2022-08-22T13:13:40.458Z,2.20
2022-08-22T13:18:56.677Z,2.10
2022-08-22T13:24:05.771Z,2.30
2022-08-22T13:29:27.407Z,2.20
2022-08-22T13:34:49.225Z,2.10
2022-08-22T13:39:56.104Z,2.10
2022-08-22T13:45:04.465Z,2.15
2022-08-22T13:50:15.000Z,2.10
2022-08-22T13:55:21.087Z,2.20
2022-08-22T14:00:59.769Z,2.08
2022-08-22T14:06:37.530Z,2.35
2022-08-22T14:11:45.615Z,2.27
2022-08-22T14:16:51.750Z,2.45
2022-08-22T14:22:00.187Z,2.40
2022-08-22T14:27:07.150Z,2.30
2022-08-22T14:32:35.044Z,2.30
2022-08-22T14:37:44.400Z,2.70
2022-08-22T14:42:55.582Z,2.70
2022-08-22T14:48:30.556Z,2.50
2022-08-22T14:53:30.181Z,2.63
2022-08-22T14:58:37.234Z,2.33
2022-08-22T15:03:42.578Z,2.40
2022-08-22T15:08:51.635Z,2.70
2022-08-22T15:14:04.058Z,2.50
2022-08-22T15:19:26.432Z,2.50
2022-08-22T15:24:32.067Z,2.22
2022-08-22T15:29:51.683Z,2.63
2022-08-22T15:35:03.375Z,2.53
2022-08-22T15:40:13.186Z,2.90
2022-08-22T15:45:21.368Z,2.50
2022-08-22T15:50:35.986Z,2.47
2022-08-22T15:56:19.727Z,2.70
2022-08-22T16:01:25.486Z,2.47
2022-08-22T16:06:45.076Z,2.50
2022-08-22T16:11:55.908Z,2.43
2022-08-22T16:17:03.950Z,2.58
2022-08-22T16:22:16.957Z,2.70
2022-08-22T16:27:25.676Z,2.33
2022-08-22T16:32:29.340Z,2.60
2022-08-22T16:37:45.953Z,2.63
2022-08-22T16:43:10.578Z,2.65
2022-08-22T16:48:39.551Z,2.53
2022-08-22T16:54:08.719Z,4.10
2022-08-22T16:59:29.594Z,2.80
2022-08-22T17:04:52.052Z,2.50
2022-08-22T17:10:12.370Z,2.58
2022-08-22T17:15:28.035Z,2.50
2022-08-22T17:20:44.292Z,2.63
2022-08-22T17:25:59.662Z,2.97
2022-08-22T17:31:11.809Z,2.20
2022-08-22T17:36:26.994Z,2.88
2022-08-22T17:41:39.539Z,2.57
2022-08-22T17:46:49.586Z,2.80
2022-08-22T17:51:58.626Z,2.97
2022-08-22T17:57:08.193Z,2.53
2022-08-22T18:02:25.448Z,2.80
2022-08-22T18:07:38.317Z,3.00
2022-08-22T18:12:47.027Z,2.70
2022-08-22T18:17:56.724Z,2.73
2022-08-22T18:23:04.429Z,3.00
2022-08-22T18:28:13.878Z,3.03
2022-08-22T18:33:24.316Z,3.00
2022-08-22T18:38:33.224Z,2.53
2022-08-22T18:43:39.299Z,3.10
2022-08-22T18:49:05.414Z,2.73
2022-08-22T18:54:37.100Z,2.90
2022-08-22T18:59:54.782Z,3.03
2022-08-22T19:05:42.642Z,3.07
2022-08-22T19:10:55.106Z,2.77
2022-08-22T19:16:14.440Z,3.20
2022-08-22T19:21:40.819Z,3.13
2022-08-22T19:26:48.152Z,2.90
2022-08-22T19:31:54.533Z,3.00
2022-08-22T19:37:32.255Z,3.00
2022-08-22T19:42:39.999Z,3.00
2022-08-22T19:47:44.478Z,3.03
2022-08-22T19:53:05.478Z,3.45
2022-08-22T19:58:18.803Z,3.50
2022-08-22T20:03:45.719Z,3.30
2022-08-22T20:08:58.798Z,3.38
2022-08-22T20:14:30.096Z,3.60
2022-08-22T20:20:16.442Z,3.50
2022-08-22T20:25:33.386Z,3.65
2022-08-22T20:30:44.240Z,3.70
2022-08-22T20:35:54.418Z,3.57
2022-08-22T20:41:11.740Z,3.78
2022-08-22T20:46:36.386Z,3.50
2022-08-22T20:51:39.214Z,4.03
2022-08-22T20:56:53.623Z,3.83
2022-08-22T21:02:07.756Z,3.92
2022-08-22T21:07:10.658Z,4.00
2022-08-22T21:12:13.901Z,4.03
2022-08-22T21:17:27.102Z,4.00
2022-08-22T21:22:33.554Z,4.32
2022-08-22T21:27:36.610Z,4.77
2022-08-22T21:32:44.287Z,4.32
2022-08-22T21:37:47.982Z,4.10
2022-08-22T21:43:02.522Z,4.97
2022-08-22T21:48:34.257Z,4.37
2022-08-22T21:53:37.076Z,4.53
2022-08-22T21:58:43.385Z,4.25
2022-08-22T22:03:47.542Z,4.43
2022-08-22T22:08:50.696Z,4.97
2022-08-22T22:13:53.515Z,4.88
2022-08-22T22:18:57.915Z,4.83
2022-08-22T22:24:00.710Z,4.50
2022-08-22T22:29:04.570Z,4.32
2022-08-22T22:34:08.700Z,4.40
2022-08-22T22:39:11.833Z,4.80
2022-08-22T22:44:14.633Z,4.65
2022-08-22T22:49:19.327Z,4.47
2022-08-22T22:54:27.336Z,4.37
2022-08-22T22:59:30.319Z,4.40
2022-08-22T23:04:39.352Z,4.65
2022-08-22T23:09:44.966Z,5.00
2022-08-22T23:14:48.121Z,4.90
2022-08-22T23:19:53.064Z,4.93
2022-08-22T23:24:55.892Z,5.07
2022-08-22T23:29:58.701Z,5.13
2022-08-22T23:35:02.920Z,5.07
2022-08-22T23:40:09.318Z,5.93
2022-08-22T23:45:12.261Z,5.53
2022-08-22T23:50:16.438Z,5.93
2022-08-22T23:55:19.363Z,6.03
